Time;durP1;ratioP1;P1;durP2;ratioP2;P2;SDS_P1;SDS_P2;PMS_P1;PMS_P2;Temp;Humidity;BMP_temperature;BMP_pressure;BME280_temperature;BME280_humidity;BME280_pressure;Samples;Min_cycle;Max_cycle;Signal;HPM_P1;HPM_P2
2022/05/08 00:02:24;;;;;;;30.57;22.90;;;;;;;11.34;74.29;97732.33;1514841;94;25883;-77
2022/05/08 00:04:52;;;;;;;35.00;24.55;;;;;;;11.32;74.33;97731.18;1514971;94;25808;-77
2022/05/08 00:07:21;;;;;;;28.23;22.17;;;;;;;11.31;74.39;97728.68;1499717;94;26702;-75
2022/05/08 00:09:48;;;;;;;33.88;22.52;;;;;;;11.32;74.50;97731.18;1499365;95;25860;-77
2022/05/08 00:12:16;;;;;;;35.75;22.25;;;;;;;11.35;74.54;97731.28;1527401;91;28202;-77
2022/05/08 00:14:44;;;;;;;31.40;23.02;;;;;;;11.33;74.53;97732.01;1536419;91;25830;-77
2022/05/08 00:17:14;;;;;;;26.52;21.55;;;;;;;11.32;74.58;97728.99;1536282;93;26965;-77
2022/05/08 00:19:47;;;;;;;32.17;23.95;;;;;;;11.32;74.60;97727.64;1536194;92;26624;-76
2022/05/08 00:22:14;;;;;;;35.50;22.20;;;;;;;11.33;74.67;97730.66;1536114;92;25921;-76
2022/05/08 00:24:41;;;;;;;28.30;21.35;;;;;;;11.33;74.69;97730.66;1536062;91;27484;-77
2022/05/08 00:27:08;;;;;;;28.35;22.30;;;;;;;11.32;74.69;97727.64;1536260;93;25798;-77
2022/05/08 00:29:34;;;;;;;27.00;20.97;;;;;;;11.32;74.74;97725.77;1536314;93;26665;-77
2022/05/08 00:32:01;;;;;;;26.35;20.43;;;;;;;11.31;74.79;97725.98;1536320;93;25983;-76
2022/05/08 00:34:28;;;;;;;30.65;20.50;;;;;;;11.31;74.82;97718.70;1536375;93;26162;-76
2022/05/08 00:36:54;;;;;;;29.10;20.62;;;;;;;11.33;74.81;97715.80;1536504;92;27365;-77
2022/05/08 00:39:21;;;;;;;25.65;19.90;;;;;;;11.33;74.87;97720.68;1536505;93;25833;-78
2022/05/08 00:41:48;;;;;;;28.32;20.48;;;;;;;11.34;74.93;97722.86;1536795;93;25863;-77
2022/05/08 00:44:15;;;;;;;27.05;20.65;;;;;;;11.37;74.95;97718.38;1558077;90;26140;-76
2022/05/08 00:46:41;;;;;;;30.37;21.23;;;;;;;11.37;74.94;97719.72;1588030;90;25767;-77
2022/05/08 00:49:08;;;;;;;26.48;19.85;;;;;;;11.35;74.99;97712.37;1587783;90;27459;-77
2022/05/08 00:51:36;;;;;;;23.73;19.32;;;;;;;11.35;74.97;97719.12;1588183;90;25907;-77
2022/05/08 00:54:03;;;;;;;23.62;19.35;;;;;;;11.36;74.99;97715.36;1608402;87;25895;-78
2022/05/08 00:56:31;;;;;;;24.77;19.15;;;;;;;11.34;75.06;97714.76;1641898;87;26642;-77
2022/05/08 00:58:57;;;;;;;26.73;19.87;;;;;;;11.31;75.05;97716.00;1641609;87;26100;-78
2022/05/08 01:01:24;;;;;;;23.45;18.40;;;;;;;11.29;75.11;97712.67;1641788;87;27382;-76
2022/05/08 01:03:51;;;;;;;26.48;20.68;;;;;;;11.28;75.17;97717.76;1641430;87;25779;-76
2022/05/08 01:06:19;;;;;;;24.92;19.10;;;;;;;11.28;75.21;97711.00;1641974;87;25727;-77
2022/05/08 01:08:49;;;;;;;28.60;19.15;;;;;;;11.29;75.24;97709.13;1641631;87;26688;-78
2022/05/08 01:11:17;;;;;;;24.67;19.30;;;;;;;11.29;75.27;97711.84;1610676;88;25829;-76
2022/05/08 01:13:45;;;;;;;28.32;19.85;;;;;;;11.28;75.31;97715.58;1610514;89;27358;-77
2022/05/08 01:16:15;;;;;;;25.72;19.17;;;;;;;11.26;75.35;97713.59;1610476;89;25884;-77
2022/05/08 01:18:44;;;;;;;29.18;21.85;;;;;;;11.25;75.42;97712.77;1610793;89;25837;-77
2022/05/08 01:21:21;;;;;;;29.72;20.60;;;;;;;11.23;75.50;97712.69;1610847;89;26805;-77
2022/05/08 01:23:48;;;;;;;26.48;20.85;;;;;;;11.23;75.58;97720.79;1610591;88;25931;-77
2022/05/08 01:26:22;;;;;;;25.75;21.12;;;;;;;11.22;75.67;97711.85;1610582;89;27368;-77
2022/05/08 01:28:49;;;;;;;25.00;20.25;;;;;;;11.24;75.65;97718.38;1610532;89;25749;-76
2022/05/08 01:31:16;;;;;;;24.87;20.35;;;;;;;11.22;75.67;97714.55;1610619;89;25745;-77
2022/05/08 01:33:42;;;;;;;27.35;20.00;;;;;;;11.23;75.65;97720.79;1610479;89;25974;-77
2022/05/08 01:36:09;;;;;;;26.60;20.45;;;;;;;11.22;75.64;97719.95;1617563;87;25613;-77
2022/05/08 01:38:35;;;;;;;25.45;20.27;;;;;;;11.21;75.68;97723.70;1640075;85;27423;-76
2022/05/08 01:41:04;;;;;;;23.83;19.67;;;;;;;11.21;75.75;97722.86;1694789;84;25583;-77
2022/05/08 01:43:37;;;;;;;25.45;19.77;;;;;;;11.18;75.79;97720.88;1695037;84;25789;-76
2022/05/08 01:46:05;;;;;;;23.90;19.82;;;;;;;11.19;75.81;97715.80;1694759;84;27100;-76
2022/05/08 01:48:32;;;;;;;27.77;20.62;;;;;;;11.20;75.88;97719.33;1695106;84;25814;-76
2022/05/08 01:51:01;;;;;;;28.57;20.48;;;;;;;11.21;75.90;97721.52;1695188;84;27393;-77
2022/05/08 01:53:32;;;;;;;24.63;19.95;;;;;;;11.20;75.93;97716.63;1695136;84;25910;-77
2022/05/08 01:56:00;;;;;;;25.00;19.32;;;;;;;11.19;75.93;97719.84;1694996;84;25816;-77
2022/05/08 01:58:28;;;;;;;22.98;18.62;;;;;;;11.21;75.97;97718.30;1695158;84;25986;-76
2022/05/08 02:00:57;;;;;;;26.10;19.55;;;;;;;11.21;75.98;97725.05;1695205;84;25717;-77
2022/05/08 02:03:25;;;;;;;23.92;18.92;;;;;;;11.19;76.06;97725.25;1695327;84;27369;-77
2022/05/08 02:05:52;;;;;;;23.75;19.37;;;;;;;11.21;76.02;97722.86;1695072;84;25925;-77
2022/05/08 02:08:21;;;;;;;22.42;18.77;;;;;;;11.19;76.05;97723.06;1695043;84;25781;-77
2022/05/08 02:10:48;;;;;;;24.37;19.05;;;;;;;11.19;76.08;97726.60;1695223;84;26581;-77
2022/05/08 02:13:15;;;;;;;27.25;20.70;;;;;;;11.18;76.20;97726.28;1695345;84;25933;-77
2022/05/08 02:15:42;;;;;;;27.05;19.07;;;;;;;11.14;76.18;97725.03;1711166;83;28429;-76
2022/05/08 02:18:10;;;;;;;28.62;19.55;;;;;;;11.13;76.28;97727.41;1711885;83;25647;-76
2022/05/08 02:20:39;;;;;;;28.17;21.05;;;;;;;11.10;76.35;97727.02;1711807;83;25694;-77
2022/05/08 02:23:07;;;;;;;25.25;20.12;;;;;;;11.07;76.45;97733.66;1711793;83;26062;-77
2022/05/08 02:25:33;;;;;;;23.40;19.20;;;;;;;11.07;76.49;97726.07;1712056;83;25738;-77
2022/05/08 02:28:00;;;;;;;26.50;19.57;;;;;;;11.11;76.53;97723.25;1712027;83;27355;-77
2022/05/08 02:30:26;;;;;;;24.60;19.55;;;;;;;11.13;76.54;97720.66;1711882;83;25567;-76
2022/05/08 02:32:54;;;;;;;25.52;19.57;;;;;;;11.14;76.57;97722.33;1712137;83;26653;-77
2022/05/08 02:35:22;;;;;;;23.98;18.10;;;;;;;11.16;76.58;97724.30;1711930;83;25960;-76
2022/05/08 02:37:55;;;;;;;24.32;19.60;;;;;;;11.15;76.63;97727.21;1711896;83;25433;-77
2022/05/08 02:40:23;;;;;;;23.38;19.32;;;;;;;11.14;76.66;97720.14;1712047;83;28052;-77
2022/05/08 02:42:51;;;;;;;24.07;19.73;;;;;;;11.12;76.74;97730.32;1711903;83;25681;-77
2022/05/08 02:45:18;;;;;;;26.55;20.35;;;;;;;11.12;76.80;97735.20;1712021;83;25765;-76
2022/05/08 02:47:46;;;;;;;24.92;19.60;;;;;;;11.12;76.87;97728.97;1711995;83;26789;-77
2022/05/08 02:50:13;;;;;;;26.60;19.98;;;;;;;11.09;76.94;97726.19;1712098;83;25666;-76
2022/05/08 02:52:41;;;;;;;26.77;19.07;;;;;;;11.08;76.97;97728.57;1711953;83;27453;-77
2022/05/08 03:00:44;;;;;;;21.45;18.17;;;;;;;11.10;77.06;97731.91;1711777;83;26123;-77
2022/05/08 03:03:11;;;;;;;22.58;19.15;;;;;;;11.10;77.11;97735.95;1711879;83;25733;-76
2022/05/08 03:05:44;;;;;;;23.85;17.70;;;;;;;11.10;77.12;97733.25;1712023;83;27457;-76
2022/05/08 03:08:11;;;;;;;24.77;17.98;;;;;;;11.09;77.11;97735.64;1711916;83;25912;-77
2022/05/08 03:13:23;;;;;;;21.62;17.40;;;;;;;11.09;77.16;97731.59;1711702;83;26257;-77
2022/05/08 03:15:50;;;;;;;24.47;18.57;;;;;;;11.10;77.24;97737.30;1712120;83;25789;-76
2022/05/08 03:18:18;;;;;;;23.02;18.90;;;;;;;11.11;77.28;97730.00;1711827;83;28205;-76
2022/05/08 03:20:45;;;;;;;24.10;18.45;;;;;;;11.10;77.29;97735.95;1711543;83;25666;-76
2022/05/08 03:23:11;;;;;;;27.52;18.30;;;;;;;11.10;77.35;97731.91;1712115;83;25769;-76
2022/05/08 03:25:38;;;;;;;23.92;18.73;;;;;;;11.10;77.35;97732.42;1711946;83;25970;-76
2022/05/08 03:28:05;;;;;;;22.32;17.75;;;;;;;11.09;77.38;97731.59;1712027;83;25650;-76
2022/05/08 03:30:32;;;;;;;24.50;17.77;;;;;;;11.09;77.39;97734.29;1711960;83;27379;-76
2022/05/08 03:32:59;;;;;;;22.52;18.92;;;;;;;11.12;77.46;97739.26;1711954;83;25676;-76
2022/05/08 03:35:25;;;;;;;24.52;20.05;;;;;;;11.13;77.50;97737.39;1711921;83;25285;-76
2022/05/08 03:37:52;;;;;;;23.77;18.27;;;;;;;11.12;77.47;97736.55;1712896;83;25958;-76
2022/05/08 03:40:19;;;;;;;22.15;18.50;;;;;;;11.13;77.59;97740.09;1713247;83;25228;-76
2022/05/08 03:42:45;;;;;;;22.73;18.67;;;;;;;11.11;77.67;97743.52;1713202;83;28116;-76
2022/05/08 03:45:14;;;;;;;21.97;18.35;;;;;;;11.08;77.69;97742.08;1713297;83;25733;-76
2022/05/08 03:47:41;;;;;;;20.90;18.42;;;;;;;11.06;77.77;97743.31;1713302;83;25702;-77
2022/05/08 03:50:09;;;;;;;21.97;17.98;;;;;;;11.06;77.89;97747.37;1713173;83;25659;-76
2022/05/08 03:52:35;;;;;;;23.00;18.17;;;;;;;11.07;77.93;97752.57;1684391;85;25819;-76
2022/05/08 03:55:03;;;;;;;22.10;18.75;;;;;;;11.09;77.98;97753.20;1684507;84;27411;-76
2022/05/08 03:57:29;;;;;;;23.00;18.48;;;;;;;11.11;77.97;97761.08;1684456;85;25759;-76
2022/05/08 03:59:56;;;;;;;24.32;18.48;;;;;;;11.12;77.98;97755.47;1684330;84;25766;-76
2022/05/08 04:02:23;;;;;;;25.95;18.02;;;;;;;11.14;78.01;97754.75;1684666;85;26689;-76
2022/05/08 04:04:49;;;;;;;25.15;17.92;;;;;;;11.15;77.99;97749.66;1684552;85;25724;-76
2022/05/08 04:07:16;;;;;;;22.82;18.37;;;;;;;11.17;77.99;97758.39;1684637;85;27299;-77
2022/05/08 04:09:42;;;;;;;21.02;17.75;;;;;;;11.19;78.06;97761.73;1684460;85;25884;-76
2022/05/08 04:12:12;;;;;;;21.40;18.48;;;;;;;11.22;78.08;97763.71;1684835;84;25706;-76
2022/05/08 04:14:39;;;;;;;25.10;19.20;;;;;;;11.23;78.08;97761.33;1684609;85;26051;-76
2022/05/08 04:17:05;;;;;;;23.18;18.62;;;;;;;11.25;78.10;97767.33;1684743;85;25731;-76
2022/05/08 04:19:33;;;;;;;23.40;18.62;;;;;;;11.26;78.14;97771.17;1684394;85;27471;-76
2022/05/08 04:24:45;;;;;;;27.07;20.10;;;;;;;11.29;78.28;97767.23;1684806;85;25794;-76
2022/05/08 04:27:11;;;;;;;25.27;21.40;;;;;;;11.32;78.30;97768.18;1684734;85;25829;-76
2022/05/08 04:29:38;;;;;;;27.35;19.82;;;;;;;11.34;78.32;97776.92;1684684;85;25895;-75
2022/05/08 04:32:05;;;;;;;29.20;22.48;;;;;;;11.38;78.33;97774.09;1684686;85;27222;-75
2022/05/08 04:34:31;;;;;;;30.10;21.77;;;;;;;11.40;78.31;97776.08;1684664;85;25698;-75
2022/05/08 04:36:58;;;;;;;29.75;21.48;;;;;;;11.41;78.25;97773.69;1685353;83;25738;-76
2022/05/08 04:39:25;;;;;;;26.73;20.97;;;;;;;11.42;78.29;97773.48;1655531;85;26028;-76
2022/05/08 04:41:52;;;;;;;29.70;22.02;;;;;;;11.46;78.38;97780.67;1655073;86;25688;-75
2022/05/08 04:44:19;;;;;;;26.97;22.50;;;;;;;11.48;78.34;97778.56;1686640;84;27389;-75
2022/05/08 04:46:45;;;;;;;28.25;22.77;;;;;;;11.50;78.35;97784.08;1655667;85;25704;-76
2022/05/08 04:49:12;;;;;;;26.70;21.95;;;;;;;11.51;78.38;97777.63;1655209;86;26699;-75
2022/05/08 04:51:39;;;;;;;25.52;21.52;;;;;;;11.54;78.35;97777.74;1686350;84;26780;-75
2022/05/08 04:54:06;;;;;;;26.05;22.80;;;;;;;11.55;78.31;97779.41;1655651;86;25684;-75
2022/05/08 04:56:33;;;;;;;27.70;23.07;;;;;;;11.57;78.40;97784.09;1655228;86;27451;-75
2022/05/08 04:58:59;;;;;;;26.70;22.73;;;;;;;11.58;78.36;97784.41;1686433;84;25739;-75
2022/05/08 05:01:26;;;;;;;29.70;23.05;;;;;;;11.60;78.39;97785.00;1655811;86;25763;-75
2022/05/08 05:03:53;;;;;;;26.52;22.27;;;;;;;11.62;78.40;97790.20;1655248;86;25987;-75
2022/05/08 05:06:19;;;;;;;26.57;22.45;;;;;;;11.61;78.41;97792.08;1686603;85;25887;-75
2022/05/08 05:08:46;;;;;;;28.32;21.68;;;;;;;11.63;78.45;97798.11;1655600;86;27642;-75
2022/05/08 05:11:13;;;;;;;26.20;23.40;;;;;;;11.65;78.54;97798.74;1684201;84;25800;-75
2022/05/08 05:13:39;;;;;;;30.55;24.85;;;;;;;11.67;78.53;97795.84;1655662;86;25708;-75
2022/05/08 05:16:07;;;;;;;27.75;24.07;;;;;;;11.69;78.55;97797.30;1655108;86;26069;-75
2022/05/08 05:18:34;;;;;;;30.43;25.50;;;;;;;11.71;78.51;97802.50;1717801;83;25256;-75
2022/05/08 05:21:00;;;;;;;31.48;26.17;;;;;;;11.74;78.49;97801.55;1655549;86;28176;-74
2022/05/08 05:23:27;;;;;;;31.97;25.92;;;;;;;11.77;78.45;97810.62;1654760;86;25725;-75
2022/05/08 05:25:53;;;;;;;32.75;26.35;;;;;;;11.77;78.45;97802.52;1686565;85;25763;-74
2022/05/08 05:28:20;;;;;;;34.48;25.37;;;;;;;11.80;78.48;97806.16;1655507;86;25964;-74
2022/05/08 05:30:46;;;;;;;29.57;23.70;;;;;;;11.82;78.44;97810.84;1655018;86;25714;-75
2022/05/08 05:33:15;;;;;;;28.80;24.00;;;;;;;11.85;78.44;97811.76;1686424;85;27359;-74
2022/05/08 05:35:42;;;;;;;33.00;25.30;;;;;;;11.86;78.43;97808.53;1686448;84;26963;-75
2022/05/08 05:38:09;;;;;;;29.05;24.45;;;;;;;11.88;78.44;97810.52;1654621;83;25320;-75
2022/05/08 05:40:36;;;;;;;26.80;21.95;;;;;;;11.88;78.48;97808.64;1642632;85;25472;-74
2022/05/08 05:43:06;;;;;;;27.77;21.62;;;;;;;11.92;78.46;97814.99;1642770;87;25868;-75
2022/05/08 05:45:32;;;;;;;27.52;23.52;;;;;;;11.96;78.42;97821.11;1642666;86;28274;-75
2022/05/08 05:48:00;;;;;;;32.65;23.92;;;;;;;11.98;78.41;97816.84;1642610;85;25732;-76
2022/05/08 05:50:28;;;;;;;28.32;23.50;;;;;;;12.01;78.49;97820.48;1642421;87;26384;-75
2022/05/08 05:52:54;;;;;;;30.80;24.50;;;;;;;12.03;78.57;97815.70;1642541;87;26712;-75
2022/05/08 05:55:22;;;;;;;31.10;23.40;;;;;;;12.07;78.57;97816.44;1642486;87;25789;-75
2022/05/08 05:57:49;;;;;;;27.70;22.07;;;;;;;12.09;78.53;97820.26;1642872;87;28157;-75
2022/05/08 06:00:18;;;;;;;31.12;24.85;;;;;;;12.13;78.53;97820.99;1642584;87;25712;-75
2022/05/08 06:02:45;;;;;;;27.25;23.32;;;;;;;12.15;78.61;97824.32;1642936;87;25725;-75
2022/05/08 06:05:14;;;;;;;28.90;24.30;;;;;;;12.20;78.60;97824.50;1642732;87;26121;-76
2022/05/08 06:07:42;;;;;;;31.15;23.22;;;;;;;12.21;78.59;97826.17;1622585;87;25859;-75
2022/05/08 06:10:11;;;;;;;34.33;24.95;;;;;;;12.25;78.65;97826.59;1683398;85;27398;-76
2022/05/08 06:12:38;;;;;;;31.07;24.43;;;;;;;12.28;78.68;97825.34;1683311;85;25760;-75
2022/05/08 06:15:08;;;;;;;28.02;24.27;;;;;;;12.29;78.84;97825.12;1683304;85;25973;-76
2022/05/08 06:17:33;;;;;;;26.42;22.30;;;;;;;12.33;78.82;97828.22;1683499;83;26156;-75
2022/05/08 06:20:00;;;;;;;26.65;21.77;;;;;;;12.36;78.77;97824.58;1683291;85;25720;-76
2022/05/08 06:22:26;;;;;;;29.15;22.37;;;;;;;12.39;78.78;97822.80;1683474;85;27482;-75
2022/05/08 06:24:53;;;;;;;27.32;22.52;;;;;;;12.43;78.72;97826.77;1683103;85;25728;-76
2022/05/08 06:27:20;;;;;;;27.48;22.93;;;;;;;12.46;78.77;97829.02;1683090;85;25688;-75
2022/05/08 06:29:47;;;;;;;30.50;26.25;;;;;;;12.50;78.80;97830.27;1683352;85;26090;-76
2022/05/08 06:32:14;;;;;;;30.77;26.07;;;;;;;12.53;78.72;97827.14;1683481;85;25684;-75
2022/05/08 06:34:41;;;;;;;31.42;27.15;;;;;;;12.58;78.73;97825.12;1683368;85;27485;-75
2022/05/08 06:37:08;;;;;;;29.25;25.65;;;;;;;12.60;78.80;97830.64;1680829;85;25726;-75
2022/05/08 06:39:37;;;;;;;29.50;24.77;;;;;;;12.63;78.84;97824.81;1668725;85;26326;-76
2022/05/08 06:42:03;;;;;;;29.00;25.10;;;;;;;12.69;78.90;97838.52;1668717;85;26042;-75
2022/05/08 06:44:30;;;;;;;30.27;25.20;;;;;;;12.72;78.86;97829.45;1668777;85;25756;-75
2022/05/08 06:46:58;;;;;;;35.95;23.83;;;;;;;12.77;78.96;97835.08;1668762;85;27468;-74
2022/05/08 06:49:25;;;;;;;25.43;21.93;;;;;;;12.82;78.90;97835.24;1668624;85;25732;-74
2022/05/08 06:51:52;;;;;;;26.60;22.25;;;;;;;12.85;78.90;97828.05;1668722;85;25676;-74
2022/05/08 06:54:19;;;;;;;27.48;23.25;;;;;;;12.91;78.93;97839.91;1668810;85;26633;-75
2022/05/08 06:56:46;;;;;;;29.20;22.70;;;;;;;12.95;78.92;97839.77;1668765;85;25692;-74
2022/05/08 07:01:57;;;;;;;25.80;23.05;;;;;;;12.94;78.86;97839.46;1668367;86;25697;-75
2022/05/08 07:04:24;;;;;;;24.87;22.20;;;;;;;12.92;79.00;97838.31;1668782;85;25697;-74
2022/05/08 07:06:52;;;;;;;28.25;22.67;;;;;;;12.92;79.03;97842.94;1668752;85;25989;-75
2022/05/08 07:09:19;;;;;;;24.77;21.50;;;;;;;12.95;79.05;97839.25;1668658;85;25680;-75
2022/05/08 07:11:47;;;;;;;26.90;22.48;;;;;;;13.02;79.11;97841.11;1668738;85;27492;-74
2022/05/08 07:14:17;;;;;;;24.30;20.90;;;;;;;13.07;79.19;97843.98;1667200;85;25487;-75
2022/05/08 07:16:44;;;;;;;27.40;21.73;;;;;;;13.12;79.03;97840.95;1593555;89;25766;-75
2022/05/08 07:19:11;;;;;;;25.02;20.45;;;;;;;13.18;78.97;97844.68;1663685;86;26890;-76
2022/05/08 07:21:38;;;;;;;23.45;20.95;;;;;;;13.24;78.93;97847.38;1663883;86;26168;-74
2022/05/08 07:24:06;;;;;;;22.37;19.98;;;;;;;13.27;78.85;97846.95;1663936;86;27539;-75
2022/05/08 07:26:33;;;;;;;21.82;19.17;;;;;;;13.33;78.77;97843.34;1663788;86;25704;-75
2022/05/08 07:29:00;;;;;;;21.52;17.85;;;;;;;13.33;78.58;97841.99;1664039;86;25708;-75
2022/05/08 07:31:26;;;;;;;22.17;18.50;;;;;;;13.39;78.53;97843.53;1663747;86;26151;-75
2022/05/08 07:36:12;;;;;;;25.77;18.55;;;;;;;13.45;78.37;97842.64;1660642;86;25661;-75
2022/05/08 07:36:21;;;;;;;21.37;17.35;;;;;;;13.45;78.28;97847.55;1666939;84;27500;-75
2022/05/08 07:38:47;;;;;;;21.95;19.10;;;;;;;13.48;78.24;97846.28;1694908;83;25259;-75
2022/05/08 07:41:16;;;;;;;23.75;18.77;;;;;;;13.52;78.22;97848.88;1708636;83;25677;-75
2022/05/08 07:43:47;;;;;;;29.48;22.50;;;;;;;13.55;78.02;97853.31;1708661;83;26021;-75
2022/05/08 07:46:15;;;;;;;25.08;19.60;;;;;;;13.58;78.18;97854.77;1708608;83;25807;-75
2022/05/08 07:48:41;;;;;;;21.62;18.90;;;;;;;13.58;78.07;97852.05;1708621;83;28419;-75
2022/05/08 07:51:08;;;;;;;22.93;18.30;;;;;;;13.60;78.13;97854.86;1708533;83;25731;-75
2022/05/08 07:53:34;;;;;;;23.00;19.27;;;;;;;13.63;78.20;97857.66;1708612;83;25888;-75
2022/05/08 07:56:01;;;;;;;21.52;19.00;;;;;;;13.67;78.08;97856.98;1708707;83;26055;-75
2022/05/08 07:58:31;;;;;;;23.83;19.30;;;;;;;13.72;78.15;97859.05;1708736;83;25670;-75
2022/05/08 08:00:57;;;;;;;26.55;20.57;;;;;;;13.76;78.15;97857.56;1708615;83;28356;-75
2022/05/08 08:03:27;;;;;;;25.10;19.82;;;;;;;13.81;78.12;97859.08;1708687;83;25672;-75
2022/05/08 08:05:55;;;;;;;24.30;20.17;;;;;;;13.83;78.13;97861.05;1708873;83;25738;-75
2022/05/08 08:08:25;;;;;;;26.17;21.52;;;;;;;13.88;78.21;97863.94;1708516;83;25979;-75
2022/05/08 08:11:03;;;;;;;24.25;21.65;;;;;;;13.92;78.13;97862.95;1708442;83;25750;-75
2022/05/08 08:13:29;;;;;;;26.97;21.35;;;;;;;13.93;77.98;97865.45;1708257;82;27496;-75
2022/05/08 08:15:56;;;;;;;27.02;22.05;;;;;;;13.93;77.97;97861.90;1708632;83;25982;-75
2022/05/08 08:18:22;;;;;;;25.90;21.87;;;;;;;13.96;78.05;97870.44;1708638;83;25282;-75
2022/05/08 08:20:49;;;;;;;28.65;22.30;;;;;;;13.99;78.09;97862.39;1708643;83;26408;-76
2022/05/08 08:23:16;;;;;;;29.05;22.60;;;;;;;14.02;77.98;97861.39;1708650;83;25453;-75
2022/05/08 08:25:43;;;;;;;28.17;22.42;;;;;;;14.04;77.80;97864.72;1708715;83;26816;-75
2022/05/08 08:28:10;;;;;;;27.62;22.25;;;;;;;14.03;77.76;97864.94;1708236;84;25814;-75
2022/05/08 08:30:36;;;;;;;26.68;22.32;;;;;;;14.06;77.74;97867.22;1702181;83;25260;-75
2022/05/08 08:33:06;;;;;;;31.90;23.73;;;;;;;14.08;77.75;97864.28;1708238;83;26212;-75
2022/05/08 08:35:32;;;;;;;30.48;24.25;;;;;;;14.09;77.87;97865.95;1708702;83;25774;-74
2022/05/08 08:37:59;;;;;;;30.52;26.75;;;;;;;14.11;78.05;97862.49;1704975;83;28145;-76
2022/05/08 08:40:27;;;;;;;34.38;27.02;;;;;;;14.13;78.10;97867.17;1690162;84;25659;-77
2022/05/08 08:42:56;;;;;;;32.88;27.65;;;;;;;14.17;78.04;97865.13;1690639;84;25704;-75
2022/05/08 08:48:19;;;;;;;28.47;23.18;;;;;;;14.20;77.89;97870.12;1690425;84;25674;-75
2022/05/08 08:50:47;;;;;;;30.10;25.05;;;;;;;14.21;77.79;97870.95;1648454;86;28644;-76
2022/05/08 08:53:13;;;;;;;29.30;25.43;;;;;;;14.23;77.95;97874.28;1648648;87;25753;-76
2022/05/08 08:55:40;;;;;;;31.30;24.45;;;;;;;14.25;77.97;97876.25;1648842;87;26544;-76
2022/05/08 08:58:06;;;;;;;29.05;24.15;;;;;;;14.25;77.92;97876.25;1648932;87;26905;-75
2022/05/08 09:00:33;;;;;;;27.85;23.45;;;;;;;14.26;77.97;97871.09;1648568;87;25779;-75
2022/05/08 09:03:00;;;;;;;24.90;19.87;;;;;;;14.28;77.83;97879.86;1648492;87;27447;-76
2022/05/08 09:05:26;;;;;;;27.58;20.70;;;;;;;14.29;77.63;97881.00;1648789;87;25546;-75
2022/05/08 09:07:54;;;;;;;26.45;21.07;;;;;;;14.31;77.57;97876.17;1649052;87;25876;-75
2022/05/08 09:10:27;;;;;;;31.55;23.77;;;;;;;14.28;77.33;97883.41;1648972;87;26144;-76
2022/05/08 09:13:04;;;;;;;26.45;21.82;;;;;;;14.28;77.49;97881.22;1648931;86;25301;-76
2022/05/08 09:15:36;;;;;;;23.47;20.82;;;;;;;14.31;77.66;97875.34;1648879;86;27383;-76
2022/05/08 09:18:11;;;;;;;25.60;20.60;;;;;;;14.38;77.64;97880.17;1648936;86;25739;-75
2022/05/08 09:20:46;;;;;;;30.65;23.15;;;;;;;14.41;77.31;97879.77;1648973;87;25808;-76
2022/05/08 09:23:23;;;;;;;45.73;29.10;;;;;;;14.41;77.46;97877.05;1646465;86;25923;-75
2022/05/08 09:26:00;;;;;;;62.45;36.65;;;;;;;14.44;77.45;97877.13;1635837;86;25898;-76
2022/05/08 09:28:31;;;;;;;70.70;39.20;;;;;;;14.49;77.57;97877.30;1623730;88;27601;-75
2022/05/08 09:31:06;;;;;;;59.10;33.90;;;;;;;14.53;77.77;97877.97;1623652;88;25756;-76
2022/05/08 09:33:46;;;;;;;56.92;33.83;;;;;;;14.57;77.87;97876.47;1623829;88;25933;-75
2022/05/08 09:36:22;;;;;;;39.53;24.40;;;;;;;14.61;77.91;97872.23;1507291;94;26068;-76
2022/05/08 09:38:53;;;;;;;30.08;21.37;;;;;;;14.62;77.64;97876.61;1504971;93;25392;-75
2022/05/08 09:41:28;;;;;;;24.45;19.98;;;;;;;14.61;77.42;97877.66;1514528;94;27609;-75
2022/05/08 09:44:13;;;;;;;23.95;20.02;;;;;;;14.63;77.71;97870.65;1515791;94;26631;-76
2022/05/08 09:46:45;;;;;;;20.05;17.65;;;;;;;14.63;77.63;97874.20;1517456;93;25835;-76
2022/05/08 09:49:13;;;;;;;21.62;17.65;;;;;;;14.67;77.56;97869.98;1430906;98;26100;-76
2022/05/08 09:51:42;;;;;;;21.33;18.02;;;;;;;14.70;77.35;97866.82;1428416;100;25920;-76
2022/05/08 09:54:09;;;;;;;18.32;15.75;;;;;;;14.73;77.44;97862.83;1428452;100;27468;-75
2022/05/08 09:56:36;;;;;;;18.12;15.50;;;;;;;14.77;77.10;97864.02;1428625;100;25856;-75
2022/05/08 09:59:08;;;;;;;17.90;15.30;;;;;;;14.81;76.82;97866.59;1428652;100;25979;-75
2022/05/08 10:01:35;;;;;;;18.20;13.83;;;;;;;14.84;76.89;97862.59;1426706;100;26013;-75
2022/05/08 10:04:03;;;;;;;21.33;16.62;;;;;;;14.86;76.63;97866.72;1428514;100;26025;-76
2022/05/08 10:06:34;;;;;;;16.55;14.75;;;;;;;14.88;76.79;97865.97;1428677;100;27476;-77
2022/05/08 10:14:35;;;;;;;16.75;13.28;;;;;;;15.01;76.57;97859.02;1376146;103;26041;-75
2022/05/08 10:17:04;;;;;;;16.32;13.78;;;;;;;15.09;76.53;97855.17;1376445;104;25942;-75
2022/05/08 10:19:36;;;;;;;20.20;15.83;;;;;;;15.16;76.24;97852.35;1383088;102;27550;-75
2022/05/08 10:22:06;;;;;;;20.30;15.43;;;;;;;15.20;76.15;97851.67;1400992;102;25901;-76
2022/05/08 10:24:39;;;;;;;19.50;14.07;;;;;;;15.23;75.82;97849.83;1400965;102;25821;-76
2022/05/08 10:29:53;;;;;;;18.75;15.13;;;;;;;15.24;74.78;97846.58;1403180;102;25902;-75
2022/05/08 10:32:34;;;;;;;19.50;15.35;;;;;;;15.21;74.71;97843.81;1354281;104;27544;-75
2022/05/08 10:35:14;;;;;;;20.72;15.95;;;;;;;15.24;75.02;97840.61;1372073;104;25987;-75
2022/05/08 10:37:42;;;;;;;19.52;15.60;;;;;;;15.27;74.93;97846.96;1371993;104;25975;-76
2022/05/08 10:40:29;;;;;;;21.12;16.37;;;;;;;15.29;74.72;97844.84;1371695;103;26030;-76
2022/05/08 10:43:03;;;;;;;19.90;15.30;;;;;;;15.34;74.88;97844.97;1371862;104;25935;-76
2022/05/08 10:45:37;;;;;;;18.42;16.23;;;;;;;15.39;75.18;97846.47;1378085;99;27473;-76
2022/05/08 10:48:16;;;;;;;19.52;16.75;;;;;;;15.42;74.94;97847.38;1434643;99;26553;-75
2022/05/08 10:50:51;;;;;;;19.90;15.45;;;;;;;15.45;74.56;97837.41;1434651;99;25832;-76
2022/05/08 10:53:33;;;;;;;22.77;15.83;;;;;;;15.43;74.75;97842.24;1434703;99;26014;-75
2022/05/08 10:56:07;;;;;;;16.40;14.40;;;;;;;15.41;74.84;97844.36;1434646;99;25845;-76
2022/05/08 10:58:35;;;;;;;17.37;14.30;;;;;;;15.43;74.70;97838.16;1411301;101;27443;-76
2022/05/08 11:01:05;;;;;;;19.27;14.60;;;;;;;15.46;74.25;97838.20;1411195;101;25937;-75
2022/05/08 11:03:35;;;;;;;20.45;15.38;;;;;;;15.48;74.65;97834.73;1411283;101;26065;-76
2022/05/08 11:06:00;;;;;;;18.07;14.53;;;;;;;15.50;74.67;97830.72;1411366;101;27140;-76
2022/05/08 11:08:33;;;;;;;15.75;13.68;;;;;;;15.50;74.19;97827.17;1411237;101;25906;-75
2022/05/08 11:11:10;;;;;;;17.70;14.63;;;;;;;15.53;74.01;97836.77;1470297;97;27511;-75
2022/05/08 11:13:43;;;;;;;18.87;14.98;;;;;;;15.52;73.92;97825.05;1470308;97;25891;-75
2022/05/08 11:16:12;;;;;;;16.77;14.85;;;;;;;15.55;74.05;97829.23;1470316;97;25934;-75
2022/05/08 11:18:39;;;;;;;19.98;15.63;;;;;;;15.59;74.09;97827.16;1470353;97;26015;-75
2022/05/08 11:21:09;;;;;;;17.37;15.23;;;;;;;15.64;74.21;97830.02;1470431;97;25919;-75
2022/05/08 11:23:42;;;;;;;17.92;16.05;;;;;;;15.66;73.96;97825.70;1468502;97;27506;-75
2022/05/08 11:26:12;;;;;;;22.25;17.23;;;;;;;15.70;73.99;97824.16;1494838;92;26013;-75
2022/05/08 11:28:57;;;;;;;22.58;17.48;;;;;;;15.72;73.79;97817.95;1542845;92;25873;-75
2022/05/08 11:31:25;;;;;;;23.40;16.73;;;;;;;15.76;73.74;97815.07;1543135;92;26018;-75
2022/05/08 11:36:38;;;;;;;19.20;16.77;;;;;;;15.84;73.66;97816.08;1581549;89;27469;-75
2022/05/08 11:39:12;;;;;;;20.00;17.12;;;;;;;15.90;73.75;97819.77;1595505;88;25893;-75
2022/05/08 11:41:44;;;;;;;20.02;17.37;;;;;;;15.94;73.75;97814.16;1571343;91;25957;-75
2022/05/08 11:44:18;;;;;;;21.13;15.17;;;;;;;15.99;73.87;97813.73;1571731;91;26697;-75
2022/05/08 11:46:48;;;;;;;17.82;15.63;;;;;;;15.96;73.39;97818.28;1571484;91;25444;-75
2022/05/08 11:49:25;;;;;;;17.32;15.23;;;;;;;15.93;73.33;97817.95;1571635;91;27618;-75
2022/05/08 11:51:56;;;;;;;19.62;16.15;;;;;;;15.88;73.27;97812.37;1519835;94;25922;-75